createdAt,value
2023-12-10T00:02:35.283Z,5.31
2023-12-10T00:05:20.734Z,5.28
2023-12-10T00:08:06.154Z,5.29
2023-12-10T00:10:51.638Z,5.30
2023-12-10T00:13:37.127Z,5.27
2023-12-10T00:16:22.561Z,5.31
2023-12-10T00:19:08.113Z,5.33
2023-12-10T00:21:53.768Z,5.34
2023-12-10T00:24:39.478Z,5.34
2023-12-10T00:27:25.366Z,5.33
2023-12-10T00:30:11.335Z,5.35
2023-12-10T00:32:56.810Z,5.42
2023-12-10T00:35:42.504Z,5.42
2023-12-10T00:38:28.518Z,5.39
2023-12-10T00:41:14.993Z,5.39
2023-12-10T00:44:00.651Z,5.37
2023-12-10T00:46:46.050Z,5.36
2023-12-10T00:49:31.602Z,5.39
2023-12-10T00:52:17.467Z,5.37
2023-12-10T00:55:02.837Z,5.33
2023-12-10T00:57:48.346Z,5.30
2023-12-10T01:00:33.793Z,5.33
2023-12-10T01:03:19.819Z,5.35
2023-12-10T01:06:05.738Z,5.28
2023-12-10T01:08:51.229Z,5.24
2023-12-10T01:11:36.553Z,5.25
2023-12-10T01:14:21.951Z,5.21
2023-12-10T01:17:09.509Z,5.21
2023-12-10T01:19:55.101Z,5.23
2023-12-10T01:22:41.997Z,5.22
2023-12-10T01:25:28.222Z,5.27
2023-12-10T01:28:13.740Z,5.28
2023-12-10T01:30:59.314Z,5.29
2023-12-10T01:33:45.655Z,5.29
2023-12-10T01:36:31.509Z,5.33
2023-12-10T01:39:17.175Z,5.37
2023-12-10T01:42:02.747Z,5.42
2023-12-10T01:44:48.464Z,5.43
2023-12-10T01:47:36.750Z,5.44
2023-12-10T01:50:23.096Z,5.50
2023-12-10T01:53:09.521Z,5.48
2023-12-10T01:55:55.336Z,5.47
2023-12-10T01:58:41.630Z,5.46
2023-12-10T02:01:28.239Z,5.42
2023-12-10T02:04:15.841Z,5.39
2023-12-10T02:07:01.315Z,5.44
2023-12-10T02:09:47.135Z,5.42
2023-12-10T02:12:35.833Z,5.44
2023-12-10T02:15:22.543Z,5.42
2023-12-10T02:18:08.370Z,5.36
2023-12-10T02:20:53.815Z,5.32
2023-12-10T02:23:51.226Z,5.30
2023-12-10T02:26:38.376Z,5.33
2023-12-10T02:29:24.153Z,5.35
2023-12-10T02:32:09.801Z,5.34
2023-12-10T02:34:55.157Z,5.31
2023-12-10T02:37:40.659Z,5.30
2023-12-10T02:40:26.533Z,5.28
2023-12-10T02:43:12.100Z,5.27
2023-12-10T02:45:57.783Z,5.31
2023-12-10T02:48:43.210Z,5.33
2023-12-10T02:51:28.684Z,5.26
2023-12-10T02:54:14.200Z,5.17
2023-12-10T02:56:59.833Z,5.04
2023-12-10T02:59:45.579Z,4.95
2023-12-10T03:02:31.158Z,4.85
2023-12-10T03:05:17.060Z,4.74
2023-12-10T03:08:02.819Z,4.73
2023-12-10T03:10:48.380Z,4.67
2023-12-10T03:13:33.989Z,4.76
2023-12-10T03:16:19.457Z,4.78
2023-12-10T03:19:05.574Z,4.78
2023-12-10T03:21:51.406Z,4.75
2023-12-10T03:24:37.099Z,4.68
2023-12-10T03:27:23.265Z,4.65
2023-12-10T03:30:09.703Z,4.65
2023-12-10T03:32:55.221Z,4.66
2023-12-10T03:35:40.702Z,4.65
2023-12-10T03:38:26.230Z,4.71
2023-12-10T03:41:11.665Z,4.82
2023-12-10T03:43:57.148Z,4.89
2023-12-10T03:46:42.648Z,4.96
2023-12-10T03:49:29.768Z,5.01
2023-12-10T03:52:15.140Z,5.05
2023-12-10T03:55:00.730Z,5.10
2023-12-10T03:57:47.438Z,5.18
2023-12-10T04:00:32.989Z,5.30
2023-12-10T04:03:18.377Z,5.36
2023-12-10T04:06:04.294Z,5.46
2023-12-10T04:08:50.257Z,5.51
2023-12-10T04:11:37.214Z,5.55
2023-12-10T04:14:22.941Z,5.55
2023-12-10T04:17:08.497Z,5.55
2023-12-10T04:19:54.012Z,5.60
2023-12-10T04:22:39.336Z,5.63
2023-12-10T04:25:24.854Z,5.64
2023-12-10T04:28:10.410Z,5.66
2023-12-10T04:30:56.048Z,5.67
2023-12-10T04:33:43.316Z,5.68
2023-12-10T04:36:29.155Z,5.69
2023-12-10T04:39:16.829Z,5.70
2023-12-10T04:42:02.562Z,5.67
2023-12-10T04:44:48.294Z,5.65
2023-12-10T04:47:34.071Z,5.63
2023-12-10T04:50:19.850Z,5.64
2023-12-10T04:53:05.604Z,5.79
2023-12-10T04:55:51.125Z,5.87
2023-12-10T04:58:36.492Z,5.89
2023-12-10T05:01:22.050Z,5.90
2023-12-10T05:04:07.480Z,5.87
2023-12-10T05:06:53.497Z,5.85
2023-12-10T05:09:39.058Z,5.83
2023-12-10T05:12:24.980Z,5.85
2023-12-10T05:15:10.886Z,5.89
2023-12-10T05:17:56.450Z,5.91
2023-12-10T05:20:42.012Z,5.94
2023-12-10T05:23:27.621Z,5.97
2023-12-10T05:26:12.956Z,5.98
2023-12-10T05:28:58.662Z,5.99
2023-12-10T05:31:44.360Z,6.00
2023-12-10T05:34:30.051Z,5.97
2023-12-10T05:37:15.555Z,5.97
2023-12-10T05:40:00.982Z,5.95
2023-12-10T05:42:46.401Z,5.92
2023-12-10T05:45:31.847Z,5.90
2023-12-10T05:48:17.431Z,5.88
2023-12-10T05:51:04.777Z,5.88
2023-12-10T05:53:52.107Z,5.86
2023-12-10T05:56:38.675Z,5.90
2023-12-10T05:59:24.252Z,5.90
2023-12-10T06:02:09.762Z,5.93
2023-12-10T06:04:55.356Z,5.94
2023-12-10T06:07:40.809Z,5.96
2023-12-10T06:10:26.333Z,5.98
2023-12-10T06:13:12.328Z,5.98
2023-12-10T06:15:58.964Z,5.98
2023-12-10T06:18:44.703Z,5.95
2023-12-10T06:21:31.524Z,5.94
2023-12-10T06:24:18.110Z,5.93
2023-12-10T06:27:03.650Z,5.92
2023-12-10T06:29:49.164Z,5.95
2023-12-10T06:32:34.837Z,5.98
2023-12-10T06:35:20.298Z,6.02
2023-12-10T06:38:05.732Z,6.05
2023-12-10T06:40:52.532Z,6.05
2023-12-10T06:43:38.126Z,6.01
2023-12-10T06:46:23.787Z,5.97
2023-12-10T06:49:09.610Z,5.95
2023-12-10T06:51:55.056Z,5.90
2023-12-10T06:54:41.452Z,5.96
2023-12-10T06:57:26.971Z,6.18
2023-12-10T07:00:13.406Z,6.36
2023-12-10T07:02:59.144Z,6.47
2023-12-10T07:05:44.818Z,6.49
2023-12-10T07:08:31.279Z,6.50
2023-12-10T07:11:16.828Z,6.53
2023-12-10T07:14:02.252Z,6.49
2023-12-10T07:16:47.996Z,6.46
2023-12-10T07:19:33.759Z,6.42
2023-12-10T07:22:19.440Z,6.41
2023-12-10T07:25:08.195Z,6.39
2023-12-10T07:27:54.383Z,6.36
2023-12-10T07:30:40.248Z,6.33
2023-12-10T07:33:25.988Z,6.31
2023-12-10T07:36:12.501Z,6.30
2023-12-10T07:38:58.249Z,6.33
2023-12-10T07:41:43.811Z,6.32
2023-12-10T07:44:29.655Z,6.32
2023-12-10T07:47:15.346Z,6.30
2023-12-10T07:50:00.680Z,6.25
2023-12-10T07:52:46.141Z,6.21
2023-12-10T07:55:31.574Z,6.15
2023-12-10T07:58:17.146Z,6.10
2023-12-10T08:01:03.759Z,6.06
2023-12-10T08:03:49.482Z,5.99
2023-12-10T08:06:35.254Z,5.93
2023-12-10T08:09:21.004Z,5.90
2023-12-10T08:12:06.804Z,5.87
2023-12-10T08:14:52.583Z,5.82
2023-12-10T08:17:38.299Z,5.79
2023-12-10T08:20:23.871Z,5.75
2023-12-10T08:23:09.414Z,5.75
2023-12-10T08:25:54.759Z,5.72
2023-12-10T08:28:40.249Z,5.68
2023-12-10T08:31:26.801Z,5.67
2023-12-10T08:34:12.641Z,5.67
2023-12-10T08:36:58.645Z,5.65
2023-12-10T08:39:44.639Z,5.63
2023-12-10T08:42:32.354Z,5.57
2023-12-10T08:45:19.253Z,5.54
2023-12-10T08:48:05.076Z,5.52
2023-12-10T08:50:50.620Z,5.52
2023-12-10T08:53:36.410Z,5.57
2023-12-10T08:56:21.796Z,5.64
2023-12-10T08:59:07.348Z,5.77
2023-12-10T09:01:52.909Z,5.98
2023-12-10T09:04:38.314Z,6.14
2023-12-10T09:07:23.643Z,6.29
2023-12-10T09:10:12.579Z,6.43
2023-12-10T09:12:59.323Z,6.55
2023-12-10T09:15:45.228Z,6.64
2023-12-10T09:18:31.229Z,6.69
2023-12-10T09:21:16.814Z,6.74
2023-12-10T09:24:02.259Z,6.78
2023-12-10T09:26:47.827Z,6.82
2023-12-10T09:29:39.765Z,6.84
2023-12-10T09:32:28.900Z,6.84
2023-12-10T09:35:14.974Z,6.83
2023-12-10T09:38:01.757Z,6.83
2023-12-10T09:40:47.436Z,6.81
2023-12-10T09:43:33.330Z,6.80
2023-12-10T09:46:18.963Z,6.79
2023-12-10T09:49:05.213Z,6.81
2023-12-10T09:51:50.646Z,6.85
2023-12-10T09:54:40.973Z,6.87
2023-12-10T09:57:29.345Z,6.90
2023-12-10T10:00:15.595Z,6.93
2023-12-10T10:03:02.852Z,7.01
2023-12-10T10:05:48.987Z,7.06
2023-12-10T10:08:34.536Z,7.08
2023-12-10T10:11:19.937Z,7.11
2023-12-10T10:14:05.983Z,7.12
2023-12-10T10:16:51.382Z,7.16
2023-12-10T10:19:37.149Z,7.24
2023-12-10T10:22:24.996Z,7.38
2023-12-10T10:25:10.541Z,7.44
2023-12-10T10:27:56.578Z,7.50
2023-12-10T10:30:42.362Z,7.53
2023-12-10T10:33:29.049Z,7.63
2023-12-10T10:36:17.526Z,7.80
2023-12-10T10:39:03.074Z,7.96
2023-12-10T10:41:50.642Z,8.07
2023-12-10T10:44:42.858Z,8.18
2023-12-10T10:47:29.503Z,8.25
2023-12-10T10:50:22.432Z,8.31
2023-12-10T10:53:11.391Z,8.37
2023-12-10T10:55:57.470Z,8.40
2023-12-10T10:58:43.008Z,8.45
2023-12-10T11:01:41.739Z,8.48
2023-12-10T11:04:40.538Z,8.52
2023-12-10T11:07:26.853Z,8.57
2023-12-10T11:10:12.645Z,8.64
2023-12-10T11:12:59.154Z,8.68
2023-12-10T11:15:44.496Z,8.72
2023-12-10T11:18:30.097Z,8.74
2023-12-10T11:21:15.968Z,8.79
2023-12-10T11:24:01.497Z,8.90
2023-12-10T11:26:47.814Z,8.99
2023-12-10T11:29:33.367Z,9.01
2023-12-10T11:32:18.645Z,9.06
2023-12-10T11:35:04.483Z,9.09
2023-12-10T11:37:50.257Z,9.14
2023-12-10T11:40:35.952Z,9.15
2023-12-10T11:43:21.566Z,9.18
2023-12-10T11:46:07.084Z,9.23
2023-12-10T11:48:53.030Z,9.24
2023-12-10T11:51:41.824Z,9.26
2023-12-10T11:54:27.724Z,9.30
2023-12-10T11:57:13.683Z,9.34
2023-12-10T12:00:02.585Z,9.37
2023-12-10T12:02:57.896Z,9.43
2023-12-10T12:05:51.896Z,9.43
2023-12-10T12:08:38.291Z,9.43
2023-12-10T12:11:23.810Z,9.45
2023-12-10T12:14:17.100Z,9.44
2023-12-10T12:17:05.088Z,9.48
2023-12-10T12:19:50.877Z,9.49
2023-12-10T12:22:36.903Z,9.49
2023-12-10T12:25:23.300Z,9.49
2023-12-10T12:28:08.811Z,9.44
2023-12-10T12:30:54.476Z,9.45
2023-12-10T12:33:40.667Z,9.50
2023-12-10T12:36:26.681Z,9.50
2023-12-10T12:39:13.018Z,9.48
2023-12-10T12:41:58.449Z,9.49
2023-12-10T12:44:43.919Z,9.48
2023-12-10T12:47:29.922Z,9.52
2023-12-10T12:50:16.149Z,9.54
2023-12-10T12:53:01.798Z,9.54
2023-12-10T12:55:47.242Z,9.54
2023-12-10T12:58:32.975Z,9.54
2023-12-10T13:01:18.873Z,9.55
2023-12-10T13:04:04.948Z,9.56
2023-12-10T13:06:50.432Z,9.56
2023-12-10T13:09:36.011Z,9.57
2023-12-10T13:12:22.470Z,9.60
2023-12-10T13:15:09.319Z,9.60
2023-12-10T13:17:55.066Z,9.61
2023-12-10T13:20:40.484Z,9.63
2023-12-10T13:23:25.840Z,9.64
2023-12-10T13:26:11.864Z,9.65
2023-12-10T13:28:57.378Z,9.69
2023-12-10T13:31:43.184Z,9.68
2023-12-10T13:34:29.209Z,9.68
2023-12-10T13:37:14.716Z,9.67
2023-12-10T13:40:00.186Z,9.64
2023-12-10T13:42:46.158Z,9.62
2023-12-10T13:45:31.575Z,9.61
2023-12-10T13:48:17.218Z,9.58
2023-12-10T13:51:02.674Z,9.60
2023-12-10T13:53:48.233Z,9.62
2023-12-10T13:56:34.777Z,9.58
2023-12-10T13:59:20.550Z,9.51
2023-12-10T14:02:08.490Z,9.49
2023-12-10T14:04:53.979Z,9.47
2023-12-10T14:07:42.191Z,9.38
2023-12-10T14:10:28.017Z,9.41
2023-12-10T14:13:13.541Z,9.42
2023-12-10T14:15:59.031Z,9.47
2023-12-10T14:18:44.456Z,9.41
2023-12-10T14:21:32.537Z,9.36
2023-12-10T14:24:18.924Z,9.38
2023-12-10T14:27:04.394Z,9.38
2023-12-10T14:29:50.127Z,9.33
2023-12-10T14:32:35.681Z,9.31
2023-12-10T14:35:21.164Z,9.34
2023-12-10T14:38:06.860Z,9.28
2023-12-10T14:40:52.620Z,9.26
2023-12-10T14:43:38.300Z,9.23
2023-12-10T14:46:23.822Z,9.26
2023-12-10T14:49:09.767Z,9.30
2023-12-10T14:51:55.551Z,9.32
2023-12-10T14:54:40.914Z,9.29
2023-12-10T14:57:26.658Z,9.29
2023-12-10T15:00:12.920Z,9.34
2023-12-10T15:02:58.390Z,9.36
2023-12-10T15:05:44.058Z,9.36
2023-12-10T15:08:35.853Z,9.39
2023-12-10T15:11:21.383Z,9.43
2023-12-10T15:14:06.670Z,9.49
2023-12-10T15:16:52.268Z,9.52
2023-12-10T15:19:44.392Z,9.55
2023-12-10T15:22:30.336Z,9.53
2023-12-10T15:25:15.860Z,9.50
2023-12-10T15:28:02.033Z,9.43
2023-12-10T15:30:47.748Z,9.40
2023-12-10T15:33:33.096Z,9.39
2023-12-10T15:36:20.898Z,9.36
2023-12-10T15:39:06.891Z,9.24
2023-12-10T15:41:53.963Z,9.11
2023-12-10T15:44:39.482Z,9.01
2023-12-10T15:47:24.867Z,8.87
2023-12-10T15:50:10.821Z,8.72
2023-12-10T15:52:56.715Z,8.52
2023-12-10T15:55:42.386Z,8.45
2023-12-10T15:58:28.034Z,8.42
2023-12-10T16:01:16.541Z,8.46
2023-12-10T16:04:04.522Z,8.44
2023-12-10T16:06:50.546Z,8.35
2023-12-10T16:09:36.053Z,8.37
2023-12-10T16:12:21.513Z,8.32
2023-12-10T16:15:07.658Z,8.30
2023-12-10T16:17:53.540Z,8.26
2023-12-10T16:20:40.034Z,8.24
2023-12-10T16:23:25.752Z,8.21
2023-12-10T16:26:11.439Z,8.24
2023-12-10T16:28:57.704Z,8.23
2023-12-10T16:31:43.341Z,8.23
2023-12-10T16:34:28.967Z,8.24
2023-12-10T16:37:16.926Z,8.25
2023-12-10T16:40:06.175Z,8.22
2023-12-10T16:42:52.146Z,8.16
2023-12-10T16:45:37.810Z,8.12
2023-12-10T16:48:24.853Z,8.14
2023-12-10T16:51:11.026Z,8.16
2023-12-10T16:53:56.598Z,8.15
2023-12-10T16:56:42.570Z,8.11
2023-12-10T16:59:28.990Z,8.14
2023-12-10T17:02:14.811Z,8.13
2023-12-10T17:05:02.551Z,8.14
2023-12-10T17:07:48.274Z,8.18
2023-12-10T17:10:34.454Z,8.21
2023-12-10T17:13:19.981Z,8.16
2023-12-10T17:16:05.860Z,8.10
2023-12-10T17:18:51.311Z,8.09
2023-12-10T17:21:36.687Z,8.07
2023-12-10T17:24:22.257Z,8.08
2023-12-10T17:27:07.928Z,8.11
2023-12-10T17:29:53.404Z,8.15
2023-12-10T17:32:39.313Z,8.15
2023-12-10T17:35:25.462Z,8.12
2023-12-10T17:38:10.999Z,8.08
2023-12-10T17:40:56.618Z,8.11
2023-12-10T17:43:42.347Z,8.11
2023-12-10T17:46:27.904Z,8.12
2023-12-10T17:49:13.833Z,8.13
2023-12-10T17:51:59.838Z,8.16
2023-12-10T17:54:45.574Z,8.18
2023-12-10T17:57:31.663Z,8.18
2023-12-10T18:00:17.895Z,8.16
2023-12-10T18:03:03.942Z,8.17
2023-12-10T18:05:49.556Z,8.23
2023-12-10T18:08:35.178Z,8.31
2023-12-10T18:11:20.726Z,8.34
2023-12-10T18:14:06.903Z,8.34
2023-12-10T18:16:52.743Z,8.40
2023-12-10T18:19:38.424Z,8.44
2023-12-10T18:22:24.952Z,8.44
2023-12-10T18:25:10.706Z,8.48
2023-12-10T18:27:56.182Z,8.52
2023-12-10T18:30:43.079Z,8.54
2023-12-10T18:33:28.775Z,8.55
2023-12-10T18:36:15.072Z,8.60
2023-12-10T18:39:01.042Z,8.65
2023-12-10T18:41:46.654Z,8.67
2023-12-10T18:44:34.022Z,8.71
2023-12-10T18:47:19.758Z,8.83
2023-12-10T18:50:05.677Z,8.93
2023-12-10T18:52:51.251Z,8.97
2023-12-10T18:55:36.825Z,8.98
2023-12-10T18:58:22.471Z,9.02
2023-12-10T19:01:08.106Z,9.08
2023-12-10T19:03:54.076Z,9.12
2023-12-10T19:06:39.460Z,9.15
2023-12-10T19:09:26.324Z,9.14
2023-12-10T19:12:11.676Z,9.15
2023-12-10T19:14:57.228Z,9.14
2023-12-10T19:17:42.841Z,9.14
2023-12-10T19:20:28.733Z,9.11
2023-12-10T19:23:14.521Z,9.09
2023-12-10T19:25:59.988Z,9.04
2023-12-10T19:28:46.827Z,9.01
2023-12-10T19:31:32.487Z,9.01
2023-12-10T19:34:18.053Z,8.96
2023-12-10T19:37:03.634Z,8.92
2023-12-10T19:39:49.131Z,8.89
2023-12-10T19:42:34.749Z,8.89
2023-12-10T19:45:20.215Z,8.88
2023-12-10T19:48:05.796Z,8.86
2023-12-10T19:50:51.049Z,8.85
2023-12-10T19:53:36.549Z,8.86
2023-12-10T19:56:22.379Z,8.85
2023-12-10T19:59:07.951Z,8.82
2023-12-10T20:01:53.603Z,8.79
2023-12-10T20:04:39.578Z,8.76
2023-12-10T20:07:25.514Z,8.77
2023-12-10T20:10:11.566Z,8.74
2023-12-10T20:12:57.126Z,8.71
2023-12-10T20:15:43.222Z,8.67
2023-12-10T20:18:29.703Z,8.64
2023-12-10T20:21:15.485Z,8.62
2023-12-10T20:24:00.972Z,8.61
2023-12-10T20:26:47.705Z,8.55
2023-12-10T20:29:33.195Z,8.53
2023-12-10T20:32:18.929Z,8.53
2023-12-10T20:35:04.859Z,8.49
2023-12-10T20:37:50.287Z,8.49
2023-12-10T20:40:38.810Z,8.45
2023-12-10T20:43:25.382Z,8.43
2023-12-10T20:46:11.249Z,8.39
2023-12-10T20:48:57.908Z,8.39
2023-12-10T20:51:45.611Z,8.37
2023-12-10T20:54:32.735Z,8.35
2023-12-10T20:57:18.338Z,8.35
2023-12-10T21:00:07.581Z,8.34
2023-12-10T21:02:53.277Z,8.33
2023-12-10T21:05:39.867Z,8.36
2023-12-10T21:08:26.837Z,8.38
2023-12-10T21:11:12.418Z,8.37
2023-12-10T21:14:00.713Z,8.37
2023-12-10T21:16:46.394Z,8.36
2023-12-10T21:19:32.454Z,8.35
2023-12-10T21:22:18.477Z,8.34
2023-12-10T21:25:04.036Z,8.32
2023-12-10T21:27:49.771Z,8.30
2023-12-10T21:30:36.462Z,8.29
2023-12-10T21:33:22.065Z,8.27
2023-12-10T21:36:07.933Z,8.25
2023-12-10T21:38:53.279Z,8.23
2023-12-10T21:41:38.662Z,8.24
2023-12-10T21:44:24.238Z,8.24
2023-12-10T21:47:09.511Z,8.23
2023-12-10T21:49:55.050Z,8.20
2023-12-10T21:52:40.450Z,8.20
2023-12-10T21:55:25.924Z,8.20
2023-12-10T21:58:11.653Z,8.21
2023-12-10T22:01:00.355Z,8.22
2023-12-10T22:03:46.628Z,8.23
2023-12-10T22:06:32.276Z,8.23
2023-12-10T22:09:17.701Z,8.22
2023-12-10T22:12:03.258Z,8.23
2023-12-10T22:14:50.697Z,8.23
2023-12-10T22:17:37.952Z,8.25
2023-12-10T22:20:23.156Z,8.29
2023-12-10T22:23:08.702Z,8.32
2023-12-10T22:25:54.155Z,8.35
2023-12-10T22:28:39.932Z,8.31
2023-12-10T22:31:25.633Z,8.30
2023-12-10T22:34:11.314Z,8.30
2023-12-10T22:36:57.085Z,8.25
2023-12-10T22:39:43.157Z,8.19
2023-12-10T22:42:28.698Z,8.13
2023-12-10T22:45:14.539Z,8.06
2023-12-10T22:48:00.111Z,7.96
2023-12-10T22:50:45.953Z,7.87
2023-12-10T22:53:31.586Z,7.90
2023-12-10T22:56:17.094Z,7.91
2023-12-10T22:59:02.536Z,7.94
2023-12-10T23:01:48.001Z,7.89
2023-12-10T23:04:33.651Z,7.84
2023-12-10T23:07:19.097Z,7.77
2023-12-10T23:10:06.146Z,7.72
2023-12-10T23:12:51.888Z,7.69
2023-12-10T23:15:37.718Z,7.65
2023-12-10T23:18:23.153Z,7.63
2023-12-10T23:21:08.728Z,7.62
2023-12-10T23:23:54.876Z,7.63
2023-12-10T23:26:40.553Z,7.65
2023-12-10T23:29:26.063Z,7.63
2023-12-10T23:32:11.721Z,7.61
2023-12-10T23:34:57.549Z,7.56
2023-12-10T23:37:43.028Z,7.52
2023-12-10T23:40:28.491Z,7.45
2023-12-10T23:43:14.109Z,7.39
2023-12-10T23:45:59.665Z,7.37
2023-12-10T23:48:45.124Z,7.29
2023-12-10T23:51:31.015Z,7.25
2023-12-10T23:54:16.537Z,7.23
2023-12-10T23:57:01.970Z,7.15
2023-12-10T23:59:47.425Z,7.10
